Time;durP1;ratioP1;P1;durP2;ratioP2;P2;SDS_P1;SDS_P2;PMS_P1;PMS_P2;Temp;Humidity;BMP_temperature;BMP_pressure;BME280_temperature;BME280_humidity;BME280_pressure;Samples;Min_cycle;Max_cycle;Signal;HPM_P1;HPM_P2
2023/07/20 00:01:26;;;;;;;;;;;16.60;99.90;;;;;;5065533;28;19920;-42
2023/07/20 00:03:55;;;;;;;;;;;16.60;99.90;;;;;;5069432;28;19970;-42
2023/07/20 00:06:22;;;;;;;;;;;16.60;99.90;;;;;;5045052;28;20423;-42
2023/07/20 00:08:48;;;;;;;;;;;16.60;99.90;;;;;;5048254;28;19936;-41
2023/07/20 00:11:15;;;;;;;;;;;16.60;99.90;;;;;;5045444;28;19928;-42
2023/07/20 00:13:42;;;;;;;;;;;16.50;99.90;;;;;;5047820;28;19960;-41
2023/07/20 00:16:08;;;;;;;;;;;16.50;99.90;;;;;;5048644;28;19928;-42
2023/07/20 00:18:37;;;;;;;;;;;16.50;99.90;;;;;;5049301;28;19928;-41
2023/07/20 00:21:03;;;;;;;;;;;16.50;99.90;;;;;;5048935;28;19971;-41
2023/07/20 00:23:30;;;;;;;;;;;16.50;99.90;;;;;;5053382;28;19924;-41
2023/07/20 00:25:57;;;;;;;;;;;16.50;99.90;;;;;;5062727;28;20338;-41
2023/07/20 00:28:24;;;;;;;;;;;16.50;99.90;;;;;;5048368;28;20353;-41
2023/07/20 00:30:50;;;;;;;;;;;16.40;99.90;;;;;;5051830;28;19921;-41
2023/07/20 00:33:17;;;;;;;;;;;16.50;99.90;;;;;;5051471;28;20388;-42
2023/07/20 00:35:46;;;;;;;;;;;16.40;99.90;;;;;;5044481;28;19924;-42
2023/07/20 00:38:12;;;;;;;;;;;16.40;99.90;;;;;;5052139;28;20364;-42
2023/07/20 00:40:39;;;;;;;;;;;16.40;99.90;;;;;;5052735;28;20455;-42
2023/07/20 00:43:06;;;;;;;;;;;16.40;99.90;;;;;;5058146;28;20017;-42
2023/07/20 00:45:33;;;;;;;;;;;16.40;99.90;;;;;;5052740;28;20414;-41
2023/07/20 00:48:00;;;;;;;;;;;16.40;99.90;;;;;;5051704;28;20372;-42
2023/07/20 00:50:27;;;;;;;;;;;16.40;99.90;;;;;;5052429;28;19927;-42
2023/07/20 00:52:55;;;;;;;;;;;16.40;99.90;;;;;;5051085;28;20315;-41
2023/07/20 00:55:22;;;;;;;;;;;16.40;99.90;;;;;;5052677;28;19920;-42
2023/07/20 00:57:48;;;;;;;;;;;16.30;99.90;;;;;;5053131;28;20137;-42
2023/07/20 01:00:15;;;;;;;;;;;16.30;99.90;;;;;;5051956;28;19921;-41
2023/07/20 01:02:42;;;;;;;;;;;16.30;99.90;;;;;;5055723;28;19921;-42
2023/07/20 01:05:09;;;;;;;;;;;16.30;99.90;;;;;;5050803;28;20387;-41
2023/07/20 01:07:36;;;;;;;;;;;16.30;99.90;;;;;;5052371;28;20522;-41
2023/07/20 01:10:08;;;;;;;;;;;16.30;99.90;;;;;;5051112;28;19921;-42
2023/07/20 01:12:36;;;;;;;;;;;16.20;99.90;;;;;;5051850;28;20387;-42
2023/07/20 01:15:03;;;;;;;;;;;16.20;99.90;;;;;;5051168;28;19924;-41
2023/07/20 01:17:30;;;;;;;;;;;16.20;99.90;;;;;;5061532;28;19920;-42
2023/07/20 01:19:57;;;;;;;;;;;16.20;99.90;;;;;;5051833;28;19920;-41
2023/07/20 01:22:29;;;;;;;;;;;16.20;99.90;;;;;;5051926;28;19921;-41
2023/07/20 01:25:07;;;;;;;;;;;16.10;99.90;;;;;;5051636;28;19928;-42
2023/07/20 01:27:49;;;;;;;;;;;16.10;99.90;;;;;;5051086;28;20368;-42
2023/07/20 01:30:31;;;;;;;;;;;16.10;99.90;;;;;;5047246;28;19928;-42
2023/07/20 01:32:59;;;;;;;;;;;16.10;99.90;;;;;;5043323;28;19968;-42
2023/07/20 01:35:27;;;;;;;;;;;16.00;99.90;;;;;;5047220;28;19920;-42
2023/07/20 01:37:54;;;;;;;;;;;16.00;99.90;;;;;;5052353;28;19921;-42
2023/07/20 01:40:21;;;;;;;;;;;15.90;99.90;;;;;;5049155;28;19970;-41
2023/07/20 01:42:48;;;;;;;;;;;15.90;99.90;;;;;;5051030;28;19979;-42
2023/07/20 01:45:15;;;;;;;;;;;15.80;99.90;;;;;;5050914;28;19925;-41
2023/07/20 01:47:42;;;;;;;;;;;15.80;99.90;;;;;;5052349;28;19928;-42
2023/07/20 01:50:10;;;;;;;;;;;15.80;99.90;;;;;;5050333;28;19921;-41
2023/07/20 01:52:37;;;;;;;;;;;15.70;99.90;;;;;;5046772;28;19920;-41
2023/07/20 01:55:05;;;;;;;;;;;15.70;99.90;;;;;;5049151;28;19920;-42
2023/07/20 01:57:31;;;;;;;;;;;15.60;99.90;;;;;;5050929;28;19927;-41
2023/07/20 01:59:58;;;;;;;;;;;15.60;99.90;;;;;;5052062;28;19971;-41
2023/07/20 02:02:27;;;;;;;;;;;15.60;99.90;;;;;;5056026;28;19928;-41
2023/07/20 02:04:53;;;;;;;;;;;15.60;99.90;;;;;;5050238;28;20488;-41
2023/07/20 02:07:21;;;;;;;;;;;15.50;99.90;;;;;;5051999;28;19924;-42
2023/07/20 02:09:48;;;;;;;;;;;15.50;99.90;;;;;;5048063;28;19921;-41
2023/07/20 02:12:15;;;;;;;;;;;15.40;99.90;;;;;;5040457;28;19991;-41
2023/07/20 02:14:42;;;;;;;;;;;15.30;99.90;;;;;;5050045;28;19921;-41
2023/07/20 02:17:10;;;;;;;;;;;15.30;99.90;;;;;;5051898;28;19921;-41
2023/07/20 02:19:37;;;;;;;;;;;15.30;99.90;;;;;;5051085;28;19925;-42
2023/07/20 02:22:05;;;;;;;;;;;15.20;99.90;;;;;;5050777;28;20004;-42
2023/07/20 02:24:33;;;;;;;;;;;15.10;99.90;;;;;;5051060;28;19943;-41
2023/07/20 02:26:59;;;;;;;;;;;15.10;99.90;;;;;;5044563;28;20354;-41
2023/07/20 02:29:26;;;;;;;;;;;15.10;99.90;;;;;;5048993;28;19920;-41
2023/07/20 02:31:53;;;;;;;;;;;15.00;99.90;;;;;;5051524;28;20006;-41
2023/07/20 02:34:19;;;;;;;;;;;15.00;99.90;;;;;;5050113;28;19920;-41
2023/07/20 02:36:46;;;;;;;;;;;14.90;99.90;;;;;;5054414;28;20360;-42
2023/07/20 02:39:13;;;;;;;;;;;14.90;99.90;;;;;;5055476;28;19921;-41
2023/07/20 02:41:41;;;;;;;;;;;14.90;99.90;;;;;;5053993;28;19994;-41
2023/07/20 02:44:08;;;;;;;;;;;14.80;99.90;;;;;;5040626;28;19927;-42
2023/07/20 02:46:35;;;;;;;;;;;14.80;99.90;;;;;;5054791;28;19924;-42
2023/07/20 02:49:01;;;;;;;;;;;14.80;99.90;;;;;;5066641;28;20136;-41
2023/07/20 02:51:28;;;;;;;;;;;14.70;99.90;;;;;;5048319;28;19924;-42
2023/07/20 02:53:55;;;;;;;;;;;14.70;99.90;;;;;;5055009;28;19924;-42
2023/07/20 02:56:22;;;;;;;;;;;14.60;99.90;;;;;;5054109;28;19920;-42
2023/07/20 02:58:50;;;;;;;;;;;14.60;99.90;;;;;;5048336;28;19925;-41
2023/07/20 03:01:17;;;;;;;;;;;14.50;99.90;;;;;;5060194;28;19925;-41
2023/07/20 03:03:46;;;;;;;;;;;14.50;99.90;;;;;;5062111;28;19925;-42
2023/07/20 03:06:13;;;;;;;;;;;14.40;99.90;;;;;;5053114;28;19921;-41
2023/07/20 03:08:41;;;;;;;;;;;14.50;99.90;;;;;;5058451;28;19925;-42
2023/07/20 03:11:07;;;;;;;;;;;14.40;99.90;;;;;;5054935;28;19920;-41
2023/07/20 03:13:34;;;;;;;;;;;14.40;99.90;;;;;;5052690;28;20093;-42
2023/07/20 03:16:02;;;;;;;;;;;14.30;99.90;;;;;;5060484;28;19927;-42
2023/07/20 03:18:29;;;;;;;;;;;14.30;99.90;;;;;;5054442;28;20368;-42
2023/07/20 03:20:55;;;;;;;;;;;14.30;99.90;;;;;;5054978;28;19966;-41
2023/07/20 03:23:22;;;;;;;;;;;14.30;99.90;;;;;;5053491;28;19940;-41
2023/07/20 03:25:49;;;;;;;;;;;14.20;99.90;;;;;;5053634;28;20308;-41
2023/07/20 03:28:16;;;;;;;;;;;14.20;99.90;;;;;;5045915;28;19925;-41
2023/07/20 03:30:42;;;;;;;;;;;14.20;99.90;;;;;;5045674;28;20726;-41
2023/07/20 03:33:10;;;;;;;;;;;14.10;99.90;;;;;;5054614;28;20335;-42
2023/07/20 03:35:37;;;;;;;;;;;14.10;99.90;;;;;;5053410;28;19927;-42
2023/07/20 03:38:04;;;;;;;;;;;14.00;99.90;;;;;;5054637;28;20319;-42
2023/07/20 03:40:31;;;;;;;;;;;14.00;99.90;;;;;;5054403;28;19924;-42
2023/07/20 03:42:57;;;;;;;;;;;14.00;99.90;;;;;;5054400;28;19935;-42
2023/07/20 03:45:24;;;;;;;;;;;13.90;99.90;;;;;;5044941;28;19921;-41
2023/07/20 03:47:51;;;;;;;;;;;13.90;99.90;;;;;;5054164;28;19931;-41
2023/07/20 03:50:19;;;;;;;;;;;13.90;99.90;;;;;;5054360;28;19998;-41
2023/07/20 03:52:45;;;;;;;;;;;13.80;99.90;;;;;;5054094;28;19928;-42
2023/07/20 03:55:12;;;;;;;;;;;13.90;99.90;;;;;;5052923;28;19921;-41
2023/07/20 03:57:39;;;;;;;;;;;13.80;99.90;;;;;;5053260;28;19982;-41
2023/07/20 04:00:07;;;;;;;;;;;13.80;99.90;;;;;;5048332;28;19925;-42
2023/07/20 04:02:34;;;;;;;;;;;13.80;99.90;;;;;;5055767;28;19935;-42
2023/07/20 04:05:01;;;;;;;;;;;13.80;99.90;;;;;;5059636;28;19924;-41
2023/07/20 04:07:29;;;;;;;;;;;13.80;99.90;;;;;;5050907;28;20356;-41
2023/07/20 04:09:56;;;;;;;;;;;13.70;99.90;;;;;;5052832;28;19978;-41
2023/07/20 04:12:23;;;;;;;;;;;13.70;99.90;;;;;;5052023;28;20003;-41
2023/07/20 04:14:49;;;;;;;;;;;13.70;99.90;;;;;;5054908;28;19921;-41
2023/07/20 04:17:16;;;;;;;;;;;13.70;99.90;;;;;;5053697;28;19920;-42
2023/07/20 04:19:43;;;;;;;;;;;13.70;99.90;;;;;;5052506;28;19928;-42
2023/07/20 04:22:09;;;;;;;;;;;13.70;99.90;;;;;;5052461;28;19925;-42
2023/07/20 04:24:37;;;;;;;;;;;13.70;99.90;;;;;;5061460;28;19935;-41
2023/07/20 04:27:04;;;;;;;;;;;13.70;99.90;;;;;;5053296;28;19982;-42
2023/07/20 04:29:31;;;;;;;;;;;13.70;99.90;;;;;;5052555;28;20430;-41
2023/07/20 04:31:58;;;;;;;;;;;13.70;99.90;;;;;;5052774;28;19924;-42
2023/07/20 04:34:24;;;;;;;;;;;13.60;99.90;;;;;;5053366;28;19921;-42
2023/07/20 04:36:51;;;;;;;;;;;13.60;99.90;;;;;;5051788;28;19994;-41
2023/07/20 04:39:18;;;;;;;;;;;13.60;99.90;;;;;;5053181;28;20424;-41
2023/07/20 04:41:46;;;;;;;;;;;13.60;99.90;;;;;;5056508;28;20003;-41
2023/07/20 04:44:13;;;;;;;;;;;13.60;99.90;;;;;;5053180;28;19920;-41
2023/07/20 04:46:42;;;;;;;;;;;13.60;99.90;;;;;;5053302;28;19963;-42
2023/07/20 04:49:08;;;;;;;;;;;13.60;99.90;;;;;;5052050;28;19927;-41
2023/07/20 04:51:35;;;;;;;;;;;13.70;99.90;;;;;;5051847;28;19920;-41
2023/07/20 04:54:02;;;;;;;;;;;13.60;99.90;;;;;;5051998;28;19920;-42
2023/07/20 04:56:28;;;;;;;;;;;13.70;99.90;;;;;;5053105;28;19921;-43
2023/07/20 04:58:56;;;;;;;;;;;13.70;99.90;;;;;;5050849;28;19933;-43
2023/07/20 05:01:24;;;;;;;;;;;13.60;99.90;;;;;;5057867;28;19920;-43
2023/07/20 05:03:50;;;;;;;;;;;13.70;99.90;;;;;;5052143;28;19921;-42
2023/07/20 05:06:17;;;;;;;;;;;13.70;99.90;;;;;;5068271;28;19925;-42
2023/07/20 05:08:44;;;;;;;;;;;13.70;99.90;;;;;;5052737;28;20354;-42
2023/07/20 05:11:11;;;;;;;;;;;13.70;99.90;;;;;;5055151;28;19999;-42
2023/07/20 05:13:37;;;;;;;;;;;13.70;99.90;;;;;;5059625;28;19927;-42
2023/07/20 05:16:06;;;;;;;;;;;13.70;99.90;;;;;;5036934;28;20391;-42
2023/07/20 05:18:32;;;;;;;;;;;13.70;99.90;;;;;;5067481;28;19920;-42
2023/07/20 05:20:59;;;;;;;;;;;13.70;99.90;;;;;;5058057;28;20372;-42
2023/07/20 05:23:26;;;;;;;;;;;13.80;99.90;;;;;;5052447;28;19921;-42
2023/07/20 05:25:55;;;;;;;;;;;13.80;99.90;;;;;;5050337;28;19920;-42
2023/07/20 05:28:21;;;;;;;;;;;13.80;99.90;;;;;;5052995;28;20396;-42
2023/07/20 05:30:48;;;;;;;;;;;13.90;99.90;;;;;;5056412;28;19928;-42
2023/07/20 05:33:16;;;;;;;;;;;14.00;99.90;;;;;;5042666;28;19921;-42
2023/07/20 05:35:43;;;;;;;;;;;14.00;99.90;;;;;;5049068;28;19928;-42
2023/07/20 05:38:10;;;;;;;;;;;14.10;99.90;;;;;;5048648;28;20033;-43
2023/07/20 05:40:38;;;;;;;;;;;14.20;99.90;;;;;;5044638;28;19974;-42
2023/07/20 05:43:04;;;;;;;;;;;14.30;99.90;;;;;;5052410;28;19921;-43
2023/07/20 05:45:31;;;;;;;;;;;14.40;99.90;;;;;;5052072;28;19925;-42
2023/07/20 05:47:58;;;;;;;;;;;14.50;99.90;;;;;;5052284;28;19978;-43
2023/07/20 05:50:26;;;;;;;;;;;14.60;99.90;;;;;;5058912;28;19964;-43
2023/07/20 05:52:53;;;;;;;;;;;14.70;99.90;;;;;;5058097;28;19924;-41
2023/07/20 05:55:19;;;;;;;;;;;14.80;99.90;;;;;;5051328;28;19920;-41
2023/07/20 05:57:47;;;;;;;;;;;15.00;99.90;;;;;;5064460;28;19921;-42
2023/07/20 06:00:14;;;;;;;;;;;15.10;99.90;;;;;;5050545;28;19920;-43
2023/07/20 06:02:41;;;;;;;;;;;15.20;99.90;;;;;;5052446;28;19920;-42
2023/07/20 06:05:09;;;;;;;;;;;15.30;99.90;;;;;;5060097;28;19927;-42
2023/07/20 06:07:37;;;;;;;;;;;15.40;99.90;;;;;;5052636;28;19920;-42
2023/07/20 06:10:04;;;;;;;;;;;15.60;99.90;;;;;;5061741;28;19925;-42
2023/07/20 06:12:31;;;;;;;;;;;15.70;99.90;;;;;;5059499;28;19928;-43
2023/07/20 06:15:03;;;;;;;;;;;15.80;99.90;;;;;;5058532;28;19928;-43
2023/07/20 06:17:30;;;;;;;;;;;16.00;99.90;;;;;;5053421;28;19958;-42
2023/07/20 06:19:57;;;;;;;;;;;16.10;99.90;;;;;;5057933;28;19982;-42
2023/07/20 06:22:24;;;;;;;;;;;16.20;99.90;;;;;;5055772;28;19932;-42
2023/07/20 06:24:52;;;;;;;;;;;16.30;99.90;;;;;;5056014;28;19921;-42
2023/07/20 06:27:18;;;;;;;;;;;16.50;99.90;;;;;;5061676;28;20355;-42
2023/07/20 06:29:45;;;;;;;;;;;16.60;99.90;;;;;;5049178;28;19925;-42
2023/07/20 06:32:13;;;;;;;;;;;16.70;99.90;;;;;;5063404;28;19928;-42
2023/07/20 06:34:40;;;;;;;;;;;16.90;99.90;;;;;;5063584;28;19920;-43
2023/07/20 06:37:07;;;;;;;;;;;17.10;99.90;;;;;;5050001;28;19928;-43
2023/07/20 06:39:33;;;;;;;;;;;17.20;99.90;;;;;;5054701;28;19920;-42
2023/07/20 06:42:01;;;;;;;;;;;17.30;99.90;;;;;;5052475;28;19990;-42
2023/07/20 06:44:28;;;;;;;;;;;17.50;99.90;;;;;;5056824;28;19927;-42
2023/07/20 06:46:55;;;;;;;;;;;17.60;99.90;;;;;;5058622;28;19927;-43
2023/07/20 06:49:25;;;;;;;;;;;17.60;99.90;;;;;;5058466;28;20278;-42
2023/07/20 06:51:52;;;;;;;;;;;17.80;99.90;;;;;;5054409;28;20342;-42
2023/07/20 06:54:18;;;;;;;;;;;17.90;99.90;;;;;;5058396;28;20392;-42
2023/07/20 06:56:45;;;;;;;;;;;18.00;99.90;;;;;;5058527;28;19975;-43
2023/07/20 06:59:13;;;;;;;;;;;18.20;99.90;;;;;;5061447;28;20280;-42
2023/07/20 07:01:40;;;;;;;;;;;18.30;99.90;;;;;;5055160;28;19921;-42
2023/07/20 07:04:06;;;;;;;;;;;18.40;99.90;;;;;;5054187;28;19960;-42
2023/07/20 07:06:33;;;;;;;;;;;18.60;99.90;;;;;;5056072;28;20288;-43
2023/07/20 07:09:00;;;;;;;;;;;18.70;99.90;;;;;;5054615;28;20014;-41
2023/07/20 07:11:26;;;;;;;;;;;18.80;99.90;;;;;;5055521;28;19982;-42
2023/07/20 07:13:54;;;;;;;;;;;19.00;99.90;;;;;;5057961;28;20350;-42
2023/07/20 07:16:22;;;;;;;;;;;19.20;99.90;;;;;;5058991;28;19924;-43
2023/07/20 07:18:48;;;;;;;;;;;19.30;99.90;;;;;;5064135;28;19978;-43
2023/07/20 07:21:15;;;;;;;;;;;19.50;99.90;;;;;;5055681;28;19928;-42
2023/07/20 07:23:42;;;;;;;;;;;19.60;99.90;;;;;;5057832;28;19994;-43
2023/07/20 07:26:08;;;;;;;;;;;19.60;99.90;;;;;;5056974;28;19946;-42
2023/07/20 07:28:35;;;;;;;;;;;19.70;99.90;;;;;;5060827;28;19928;-42
2023/07/20 07:31:02;;;;;;;;;;;19.70;99.90;;;;;;5052773;28;20439;-43
2023/07/20 07:33:30;;;;;;;;;;;19.70;99.90;;;;;;5057490;28;19928;-43
2023/07/20 07:35:56;;;;;;;;;;;19.70;99.90;;;;;;5062942;28;20352;-43
2023/07/20 07:38:23;;;;;;;;;;;19.80;99.90;;;;;;5046580;28;19921;-42
2023/07/20 07:40:50;;;;;;;;;;;20.00;99.90;;;;;;5051926;28;19924;-42
2023/07/20 07:43:17;;;;;;;;;;;20.20;99.90;;;;;;5052030;28;19920;-43
2023/07/20 07:45:43;;;;;;;;;;;20.40;99.90;;;;;;5054239;28;19924;-43
2023/07/20 07:48:11;;;;;;;;;;;20.50;99.90;;;;;;5061729;28;20035;-43
2023/07/20 07:50:40;;;;;;;;;;;20.60;99.90;;;;;;5058798;28;19920;-42
2023/07/20 07:53:06;;;;;;;;;;;20.80;99.90;;;;;;5053625;28;19921;-43
2023/07/20 07:55:33;;;;;;;;;;;21.00;99.90;;;;;;5063568;28;19920;-42
2023/07/20 07:58:00;;;;;;;;;;;21.30;99.90;;;;;;5063836;28;19920;-43
2023/07/20 08:00:27;;;;;;;;;;;21.40;99.90;;;;;;5068824;28;20007;-43
2023/07/20 08:02:53;;;;;;;;;;;21.50;99.90;;;;;;5064650;28;19966;-43
2023/07/20 08:05:20;;;;;;;;;;;21.60;99.40;;;;;;5061006;28;20395;-43
2023/07/20 08:07:48;;;;;;;;;;;21.60;99.90;;;;;;5052640;28;20273;-43
2023/07/20 08:10:15;;;;;;;;;;;21.60;99.90;;;;;;5044381;28;19972;-42
2023/07/20 08:12:41;;;;;;;;;;;21.50;98.50;;;;;;5055516;28;19943;-42
2023/07/20 08:15:08;;;;;;;;;;;21.40;99.30;;;;;;5048961;28;20043;-43
2023/07/20 08:17:35;;;;;;;;;;;21.50;99.40;;;;;;5053036;28;20458;-43
2023/07/20 08:20:02;;;;;;;;;;;21.50;98.80;;;;;;5063513;28;19960;-43
2023/07/20 08:22:28;;;;;;;;;;;21.60;99.10;;;;;;5049683;28;19990;-42
2023/07/20 08:24:56;;;;;;;;;;;21.60;99.00;;;;;;5051117;28;19933;-43
2023/07/20 08:27:23;;;;;;;;;;;21.60;98.70;;;;;;5050777;28;19920;-43
2023/07/20 08:29:50;;;;;;;;;;;21.50;98.50;;;;;;5054147;28;19935;-42
2023/07/20 08:32:17;;;;;;;;;;;21.50;98.70;;;;;;5057065;28;20367;-42
2023/07/20 08:34:43;;;;;;;;;;;21.60;98.30;;;;;;5058323;28;19924;-43
2023/07/20 08:37:10;;;;;;;;;;;21.60;98.30;;;;;;5059251;28;20364;-42
2023/07/20 08:39:37;;;;;;;;;;;21.80;98.70;;;;;;5046847;28;19929;-42
2023/07/20 08:42:06;;;;;;;;;;;21.90;98.10;;;;;;5051252;28;19920;-43
2023/07/20 08:44:33;;;;;;;;;;;21.90;97.90;;;;;;5048776;28;20016;-42
2023/07/20 08:46:59;;;;;;;;;;;22.00;96.60;;;;;;5051977;28;20363;-43
2023/07/20 08:49:26;;;;;;;;;;;22.00;97.00;;;;;;5055614;28;19920;-44
2023/07/20 08:51:53;;;;;;;;;;;22.20;97.30;;;;;;5061039;28;19924;-43
2023/07/20 08:54:19;;;;;;;;;;;22.40;96.10;;;;;;5059644;28;20288;-42
2023/07/20 08:56:46;;;;;;;;;;;22.60;96.20;;;;;;5045458;28;19984;-43
2023/07/20 08:59:14;;;;;;;;;;;22.70;94.30;;;;;;5057438;28;20390;-42
2023/07/20 09:01:41;;;;;;;;;;;22.90;94.70;;;;;;5051828;28;19921;-43
2023/07/20 09:04:07;;;;;;;;;;;23.00;94.60;;;;;;5058806;28;20018;-43
2023/07/20 09:06:35;;;;;;;;;;;23.00;95.20;;;;;;5061041;28;19929;-41
2023/07/20 09:09:02;;;;;;;;;;;23.10;95.30;;;;;;5059281;28;20024;-44
2023/07/20 09:11:28;;;;;;;;;;;23.20;92.90;;;;;;5058961;28;19928;-43
2023/07/20 09:14:04;;;;;;;;;;;23.40;94.20;;;;;;5055041;28;19956;-43
2023/07/20 09:16:32;;;;;;;;;;;23.50;93.60;;;;;;5059925;28;19966;-44
2023/07/20 09:18:59;;;;;;;;;;;23.70;92.50;;;;;;5048501;28;19924;-43
2023/07/20 09:21:29;;;;;;;;;;;23.80;92.10;;;;;;5064589;28;19925;-42
2023/07/20 09:23:57;;;;;;;;;;;23.90;92.20;;;;;;5058936;28;19925;-43
2023/07/20 09:26:23;;;;;;;;;;;24.00;92.10;;;;;;5037666;28;19928;-43
2023/07/20 09:28:51;;;;;;;;;;;24.20;92.30;;;;;;5051380;28;20291;-44
2023/07/20 09:31:18;;;;;;;;;;;24.20;91.20;;;;;;5047188;28;20426;-42
2023/07/20 09:33:46;;;;;;;;;;;24.00;91.00;;;;;;5056676;28;19925;-44
2023/07/20 09:36:13;;;;;;;;;;;23.80;91.70;;;;;;5051264;28;19925;-43
2023/07/20 09:38:40;;;;;;;;;;;23.60;91.80;;;;;;5050560;28;20285;-43
2023/07/20 09:41:06;;;;;;;;;;;23.60;91.50;;;;;;5060800;28;19939;-44
2023/07/20 09:43:33;;;;;;;;;;;23.60;92.10;;;;;;5039646;28;20371;-43
2023/07/20 09:46:00;;;;;;;;;;;23.70;91.00;;;;;;5060663;28;20334;-43
2023/07/20 09:48:26;;;;;;;;;;;23.90;90.80;;;;;;5052640;28;19936;-42
2023/07/20 09:50:55;;;;;;;;;;;24.10;90.40;;;;;;5048617;28;19929;-42
2023/07/20 09:53:21;;;;;;;;;;;24.30;89.50;;;;;;5051841;28;20360;-43
2023/07/20 09:55:48;;;;;;;;;;;24.40;90.70;;;;;;5048034;28;19935;-42
2023/07/20 09:58:15;;;;;;;;;;;24.50;90.70;;;;;;5053455;28;19921;-42
2023/07/20 10:00:46;;;;;;;;;;;24.50;90.60;;;;;;5056736;28;19928;-42
2023/07/20 10:03:14;;;;;;;;;;;24.50;90.30;;;;;;5061006;28;20062;-42
2023/07/20 10:05:40;;;;;;;;;;;24.40;90.70;;;;;;5045206;28;20343;-42
2023/07/20 10:08:09;;;;;;;;;;;24.30;90.30;;;;;;5049470;28;19920;-43
2023/07/20 10:10:37;;;;;;;;;;;24.30;89.50;;;;;;5053360;28;20272;-43
2023/07/20 10:13:04;;;;;;;;;;;24.20;88.80;;;;;;5063542;28;19928;-41
2023/07/20 10:15:31;;;;;;;;;;;24.10;87.00;;;;;;5049385;28;19943;-43
2023/07/20 10:17:59;;;;;;;;;;;24.00;88.60;;;;;;5053351;28;20273;-42
2023/07/20 10:20:25;;;;;;;;;;;24.00;86.30;;;;;;5049929;28;19964;-43
2023/07/20 10:22:53;;;;;;;;;;;24.10;88.90;;;;;;5048305;28;20288;-42
2023/07/20 10:25:21;;;;;;;;;;;24.30;86.40;;;;;;5047964;28;19929;-44
2023/07/20 10:27:48;;;;;;;;;;;24.40;87.00;;;;;;5039604;28;19936;-41
2023/07/20 10:30:15;;;;;;;;;;;24.60;82.10;;;;;;5042246;28;19960;-42
2023/07/20 10:32:41;;;;;;;;;;;24.70;85.30;;;;;;5047950;28;19988;-42
2023/07/20 10:35:13;;;;;;;;;;;24.90;84.10;;;;;;5044534;28;19958;-42
2023/07/20 10:37:52;;;;;;;;;;;24.90;81.60;;;;;;5046823;28;19928;-42
2023/07/20 10:40:28;;;;;;;;;;;24.70;81.00;;;;;;5057030;28;20007;-43
2023/07/20 10:42:57;;;;;;;;;;;24.80;82.50;;;;;;5053562;28;20021;-42
2023/07/20 10:45:33;;;;;;;;;;;25.00;81.80;;;;;;5060055;28;20380;-42
2023/07/20 10:48:00;;;;;;;;;;;25.10;78.40;;;;;;5051371;28;20285;-42
2023/07/20 10:50:27;;;;;;;;;;;25.20;79.60;;;;;;5050974;28;19990;-42
2023/07/20 10:53:05;;;;;;;;;;;25.20;78.00;;;;;;5045723;28;19924;-42
2023/07/20 10:55:33;;;;;;;;;;;25.10;78.70;;;;;;5040956;28;19925;-42
2023/07/20 10:58:07;;;;;;;;;;;25.00;81.10;;;;;;5069774;28;19920;-42
2023/07/20 11:00:34;;;;;;;;;;;25.00;81.40;;;;;;5051353;28;20399;-43
2023/07/20 11:03:00;;;;;;;;;;;25.10;80.00;;;;;;5053790;28;20376;-43
2023/07/20 11:05:37;;;;;;;;;;;25.20;78.60;;;;;;5054313;28;19920;-43
2023/07/20 11:08:05;;;;;;;;;;;25.10;79.80;;;;;;5061222;28;20284;-42
2023/07/20 11:10:33;;;;;;;;;;;25.00;79.10;;;;;;5055056;28;19920;-42
2023/07/20 11:13:18;;;;;;;;;;;24.90;76.00;;;;;;5050293;28;19968;-42
2023/07/20 11:15:45;;;;;;;;;;;24.70;77.00;;;;;;5052802;28;20007;-42
2023/07/20 11:18:12;;;;;;;;;;;24.50;78.30;;;;;;5060746;28;20372;-42
2023/07/20 11:20:39;;;;;;;;;;;24.60;79.90;;;;;;5053087;28;19972;-42
2023/07/20 11:23:06;;;;;;;;;;;24.60;79.20;;;;;;5054069;28;19935;-41
2023/07/20 11:25:38;;;;;;;;;;;24.60;79.20;;;;;;5056962;28;19921;-42
2023/07/20 11:28:07;;;;;;;;;;;24.80;78.50;;;;;;5058544;28;19929;-42
2023/07/20 11:30:34;;;;;;;;;;;24.90;76.60;;;;;;5059390;28;19994;-42
2023/07/20 11:33:01;;;;;;;;;;;25.10;75.30;;;;;;5060975;28;19959;-43
2023/07/20 11:35:27;;;;;;;;;;;25.40;77.70;;;;;;5063476;28;19929;-42
2023/07/20 11:37:54;;;;;;;;;;;25.60;75.00;;;;;;5054484;28;20388;-42
2023/07/20 11:40:21;;;;;;;;;;;25.80;72.70;;;;;;5061965;28;19931;-43
2023/07/20 11:42:50;;;;;;;;;;;26.00;73.80;;;;;;5056042;28;19975;-42
2023/07/20 11:45:17;;;;;;;;;;;26.20;73.20;;;;;;5054601;28;19924;-42
2023/07/20 11:47:44;;;;;;;;;;;26.30;73.60;;;;;;5057945;28;20306;-43
2023/07/20 11:50:13;;;;;;;;;;;26.40;72.60;;;;;;5059587;28;19979;-42
2023/07/20 11:52:40;;;;;;;;;;;26.60;71.90;;;;;;5062963;28;19925;-41
2023/07/20 11:55:08;;;;;;;;;;;26.80;72.30;;;;;;5056108;28;19924;-43
2023/07/20 11:57:35;;;;;;;;;;;26.90;68.90;;;;;;5063783;28;19924;-42
2023/07/20 12:00:08;;;;;;;;;;;27.10;72.30;;;;;;5058218;28;19921;-41
2023/07/20 12:02:35;;;;;;;;;;;27.20;69.60;;;;;;5057780;28;19928;-42
2023/07/20 12:05:03;;;;;;;;;;;27.10;68.20;;;;;;5046561;28;20308;-40
2023/07/20 12:07:29;;;;;;;;;;;27.10;70.50;;;;;;5046357;28;19921;-41
2023/07/20 12:10:06;;;;;;;;;;;27.10;69.60;;;;;;5046338;28;19935;-43
2023/07/20 12:12:32;;;;;;;;;;;27.10;71.40;;;;;;5054485;28;20407;-43
2023/07/20 12:15:14;;;;;;;;;;;27.10;70.10;;;;;;5044883;28;20019;-42
2023/07/20 12:17:42;;;;;;;;;;;27.10;69.70;;;;;;5052139;28;19931;-42
2023/07/20 12:20:10;;;;;;;;;;;27.00;69.60;;;;;;5055789;28;20375;-42
2023/07/20 12:22:39;;;;;;;;;;;26.80;70.60;;;;;;5049372;28;19928;-42
2023/07/20 12:25:06;;;;;;;;;;;26.70;70.10;;;;;;5047370;28;20009;-42
2023/07/20 12:27:33;;;;;;;;;;;26.60;72.00;;;;;;5053319;28;19924;-43
2023/07/20 12:29:59;;;;;;;;;;;26.70;72.70;;;;;;5043308;28;19921;-41
2023/07/20 12:32:28;;;;;;;;;;;26.70;72.70;;;;;;5042948;28;19932;-41
2023/07/20 12:34:54;;;;;;;;;;;26.60;70.80;;;;;;5044404;28;19928;-40
2023/07/20 12:37:21;;;;;;;;;;;26.60;71.30;;;;;;5045704;28;19928;-41
2023/07/20 12:39:48;;;;;;;;;;;26.50;71.50;;;;;;5051034;28;19937;-41
2023/07/20 12:42:15;;;;;;;;;;;26.50;72.30;;;;;;5052355;28;19924;-42
2023/07/20 12:44:41;;;;;;;;;;;26.60;70.90;;;;;;5042451;28;19928;-41
2023/07/20 12:47:08;;;;;;;;;;;26.60;71.60;;;;;;5046903;28;19921;-42
2023/07/20 12:49:36;;;;;;;;;;;26.60;73.40;;;;;;5054901;28;19951;-42
2023/07/20 12:52:03;;;;;;;;;;;26.60;72.00;;;;;;5039014;28;20398;-42
2023/07/20 12:54:30;;;;;;;;;;;26.70;72.90;;;;;;5054346;28;19920;-42
2023/07/20 12:56:56;;;;;;;;;;;26.70;72.50;;;;;;5048908;28;19921;-43
2023/07/20 12:59:23;;;;;;;;;;;26.70;72.80;;;;;;5047082;28;19931;-42
2023/07/20 13:01:50;;;;;;;;;;;26.70;73.10;;;;;;5051250;28;20014;-42
2023/07/20 13:04:16;;;;;;;;;;;26.60;72.80;;;;;;5048694;28;20350;-42
2023/07/20 13:06:44;;;;;;;;;;;26.60;72.80;;;;;;5048494;28;19932;-42
2023/07/20 13:09:11;;;;;;;;;;;26.50;73.20;;;;;;5051183;28;20017;-42
2023/07/20 13:11:38;;;;;;;;;;;26.40;73.00;;;;;;5054904;28;20365;-42
2023/07/20 13:14:04;;;;;;;;;;;26.30;72.10;;;;;;5049918;28;20345;-42
2023/07/20 13:16:31;;;;;;;;;;;26.10;73.80;;;;;;5052534;28;20286;-41
2023/07/20 13:18:58;;;;;;;;;;;25.90;74.30;;;;;;5048847;28;19928;-42
2023/07/20 13:21:24;;;;;;;;;;;25.80;74.30;;;;;;5050309;28;19960;-42
2023/07/20 13:23:52;;;;;;;;;;;25.60;74.00;;;;;;5041979;28;19952;-42
2023/07/20 13:26:19;;;;;;;;;;;25.40;74.50;;;;;;5045378;28;19935;-42
2023/07/20 13:28:46;;;;;;;;;;;25.30;75.20;;;;;;5043493;28;20314;-43
2023/07/20 13:31:12;;;;;;;;;;;25.20;76.10;;;;;;5055011;28;19927;-42
2023/07/20 13:33:39;;;;;;;;;;;25.10;75.60;;;;;;5052721;28;20372;-43
2023/07/20 13:36:06;;;;;;;;;;;24.90;75.20;;;;;;5050649;28;19920;-42
2023/07/20 13:38:33;;;;;;;;;;;24.80;76.50;;;;;;5055892;28;19920;-42
2023/07/20 13:41:01;;;;;;;;;;;24.70;76.20;;;;;;5064502;28;19929;-42
2023/07/20 13:43:27;;;;;;;;;;;24.70;77.10;;;;;;5051271;28;19967;-42
2023/07/20 13:45:54;;;;;;;;;;;24.60;76.80;;;;;;5049378;28;19928;-43
2023/07/20 13:48:23;;;;;;;;;;;24.50;76.70;;;;;;5053934;28;20441;-43
2023/07/20 13:50:49;;;;;;;;;;;24.50;76.70;;;;;;5062727;28;19920;-43
2023/07/20 13:53:16;;;;;;;;;;;24.40;77.00;;;;;;5061112;28;20366;-42
2023/07/20 13:55:42;;;;;;;;;;;24.50;77.50;;;;;;5055500;28;19924;-42
2023/07/20 13:58:11;;;;;;;;;;;24.50;77.80;;;;;;5060652;28;19924;-42
2023/07/20 14:00:37;;;;;;;;;;;24.50;77.40;;;;;;5051030;28;19935;-41
2023/07/20 14:03:04;;;;;;;;;;;24.60;76.90;;;;;;5046500;28;19924;-42
2023/07/20 14:05:31;;;;;;;;;;;24.60;76.30;;;;;;5053500;28;19921;-43
2023/07/20 14:07:57;;;;;;;;;;;24.70;75.00;;;;;;5049818;28;20019;-43
2023/07/20 14:10:24;;;;;;;;;;;24.70;74.20;;;;;;5049830;28;19928;-42
2023/07/20 14:12:51;;;;;;;;;;;24.80;72.90;;;;;;5050957;28;20276;-43
2023/07/20 14:15:19;;;;;;;;;;;25.00;72.70;;;;;;5051667;28;19920;-42
2023/07/20 14:17:46;;;;;;;;;;;25.20;72.10;;;;;;5052056;28;19920;-42